sensor_id;sensor_type;location;lat;lon;timestamp;temperature;humidity
20858;DHT22;10589;53.636;10.012;2022-09-12T03:45:09;10.10;99.90
20858;DHT22;10589;53.636;10.012;2022-09-12T03:47:35;10.10;99.90
20858;DHT22;10589;53.636;10.012;2022-09-12T03:50:02;10.00;99.90
20858;DHT22;10589;53.636;10.012;2022-09-12T03:52:27;10.00;99.90
20858;DHT22;10589;53.636;10.012;2022-09-12T03:54:53;10.00;99.90
20858;DHT22;10589;53.636;10.012;2022-09-12T03:57:19;10.00;99.90
20858;DHT22;10589;53.636;10.012;2022-09-12T03:59:44;10.00;99.90
20858;DHT22;10589;53.636;10.012;2022-09-12T04:02:10;10.00;99.90
20858;DHT22;10589;53.636;10.012;2022-09-12T04:04:41;10.00;99.90
20858;DHT22;10589;53.636;10.012;2022-09-12T04:07:10;10.00;99.90
20858;DHT22;10589;53.636;10.012;2022-09-12T04:09:36;9.90;99.90
20858;DHT22;10589;53.636;10.012;2022-09-12T04:12:02;9.90;99.90
20858;DHT22;10589;53.636;10.012;2022-09-12T04:14:28;9.90;99.90
20858;DHT22;10589;53.636;10.012;2022-09-12T04:16:53;9.80;99.90
20858;DHT22;10589;53.636;10.012;2022-09-12T04:19:19;9.80;99.90
20858;DHT22;10589;53.636;10.012;2022-09-12T04:21:45;9.80;99.90
20858;DHT22;10589;53.636;10.012;2022-09-12T04:24:10;9.80;99.90
20858;DHT22;10589;53.636;10.012;2022-09-12T04:26:36;9.80;99.90
20858;DHT22;10589;53.636;10.012;2022-09-12T04:29:02;9.80;99.90
20858;DHT22;10589;53.636;10.012;2022-09-12T04:31:28;9.80;99.90
20858;DHT22;10589;53.636;10.012;2022-09-12T04:33:55;9.80;99.90
20858;DHT22;10589;53.636;10.012;2022-09-12T04:36:21;9.70;99.90
20858;DHT22;10589;53.636;10.012;2022-09-12T04:38:47;9.70;99.90
20858;DHT22;10589;53.636;10.012;2022-09-12T04:41:21;9.70;99.90
20858;DHT22;10589;53.636;10.012;2022-09-12T04:43:52;9.70;99.90
20858;DHT22;10589;53.636;10.012;2022-09-12T04:46:19;9.70;99.90
20858;DHT22;10589;53.636;10.012;2022-09-12T04:48:45;9.70;99.90
20858;DHT22;10589;53.636;10.012;2022-09-12T04:51:21;9.70;99.90
20858;DHT22;10589;53.636;10.012;2022-09-12T04:53:52;9.70;99.90
20858;DHT22;10589;53.636;10.012;2022-09-12T04:56:20;9.70;99.90
20858;DHT22;10589;53.636;10.012;2022-09-12T04:58:46;9.70;99.90
20858;DHT22;10589;53.636;10.012;2022-09-12T05:01:15;9.60;99.90
20858;DHT22;10589;53.636;10.012;2022-09-12T05:03:41;9.60;99.90
20858;DHT22;10589;53.636;10.012;2022-09-12T05:06:10;9.60;99.90
20858;DHT22;10589;53.636;10.012;2022-09-12T05:08:36;9.70;99.90
20858;DHT22;10589;53.636;10.012;2022-09-12T05:11:08;9.70;99.90
20858;DHT22;10589;53.636;10.012;2022-09-12T05:13:34;9.70;99.90
20858;DHT22;10589;53.636;10.012;2022-09-12T05:16:01;9.80;99.90
20858;DHT22;10589;53.636;10.012;2022-09-12T05:18:29;9.80;99.90
20858;DHT22;10589;53.636;10.012;2022-09-12T05:20:55;9.80;99.90
20858;DHT22;10589;53.636;10.012;2022-09-12T05:23:23;9.80;99.90
20858;DHT22;10589;53.636;10.012;2022-09-12T05:25:50;9.80;99.90
20858;DHT22;10589;53.636;10.012;2022-09-12T05:28:17;9.90;99.90
20858;DHT22;10589;53.636;10.012;2022-09-12T05:30:43;9.90;99.90
20858;DHT22;10589;53.636;10.012;2022-09-12T05:33:08;10.00;99.90
20858;DHT22;10589;53.636;10.012;2022-09-12T05:35:34;10.10;99.90
20858;DHT22;10589;53.636;10.012;2022-09-12T05:38:02;10.10;99.90
20858;DHT22;10589;53.636;10.012;2022-09-12T05:40:28;10.10;99.90
20858;DHT22;10589;53.636;10.012;2022-09-12T05:42:54;10.20;99.90
20858;DHT22;10589;53.636;10.012;2022-09-12T05:45:19;10.30;99.90
20858;DHT22;10589;53.636;10.012;2022-09-12T05:47:46;10.30;99.90
20858;DHT22;10589;53.636;10.012;2022-09-12T05:50:11;10.40;99.90
20858;DHT22;10589;53.636;10.012;2022-09-12T05:52:37;10.40;99.90
20858;DHT22;10589;53.636;10.012;2022-09-12T05:55:03;10.50;99.90
20858;DHT22;10589;53.636;10.012;2022-09-12T05:57:29;10.50;99.90
20858;DHT22;10589;53.636;10.012;2022-09-12T05:59:55;10.60;99.90
20858;DHT22;10589;53.636;10.012;2022-09-12T06:02:20;10.70;99.90
20858;DHT22;10589;53.636;10.012;2022-09-12T06:04:46;10.80;99.90
20858;DHT22;10589;53.636;10.012;2022-09-12T06:07:11;10.90;99.90
20858;DHT22;10589;53.636;10.012;2022-09-12T06:09:38;10.90;99.90
20858;DHT22;10589;53.636;10.012;2022-09-12T06:12:03;11.10;99.90
20858;DHT22;10589;53.636;10.012;2022-09-12T06:14:29;11.40;99.90
20858;DHT22;10589;53.636;10.012;2022-09-12T06:16:55;11.50;99.90
20858;DHT22;10589;53.636;10.012;2022-09-12T06:19:21;11.60;99.90
20858;DHT22;10589;53.636;10.012;2022-09-12T06:21:52;11.70;99.90
20858;DHT22;10589;53.636;10.012;2022-09-12T06:24:19;11.90;99.90
20858;DHT22;10589;53.636;10.012;2022-09-12T06:26:46;12.00;99.90
20858;DHT22;10589;53.636;10.012;2022-09-12T06:29:12;12.10;99.90
20858;DHT22;10589;53.636;10.012;2022-09-12T06:31:39;12.20;99.90
20858;DHT22;10589;53.636;10.012;2022-09-12T06:34:08;12.20;99.90
20858;DHT22;10589;53.636;10.012;2022-09-12T06:36:39;12.30;99.90
20858;DHT22;10589;53.636;10.012;2022-09-12T06:39:11;12.50;99.90
20858;DHT22;10589;53.636;10.012;2022-09-12T06:41:37;12.60;99.90
20858;DHT22;10589;53.636;10.012;2022-09-12T06:44:03;12.70;99.90
20858;DHT22;10589;53.636;10.012;2022-09-12T06:46:29;12.80;99.90
20858;DHT22;10589;53.636;10.012;2022-09-12T06:48:59;13.00;99.90
20858;DHT22;10589;53.636;10.012;2022-09-12T06:51:26;13.10;99.90
20858;DHT22;10589;53.636;10.012;2022-09-12T06:53:54;13.20;99.90
20858;DHT22;10589;53.636;10.012;2022-09-12T06:56:23;13.30;99.90
20858;DHT22;10589;53.636;10.012;2022-09-12T06:58:49;13.40;99.90
20858;DHT22;10589;53.636;10.012;2022-09-12T07:01:20;13.60;99.90
20858;DHT22;10589;53.636;10.012;2022-09-12T07:03:51;13.70;99.90
20858;DHT22;10589;53.636;10.012;2022-09-12T07:06:19;13.80;99.90
20858;DHT22;10589;53.636;10.012;2022-09-12T07:08:46;13.90;99.90
20858;DHT22;10589;53.636;10.012;2022-09-12T07:11:15;14.10;99.90
20858;DHT22;10589;53.636;10.012;2022-09-12T07:13:46;14.30;99.90
20858;DHT22;10589;53.636;10.012;2022-09-12T07:16:12;14.40;99.90
20858;DHT22;10589;53.636;10.012;2022-09-12T07:18:39;14.50;99.90
20858;DHT22;10589;53.636;10.012;2022-09-12T07:21:07;14.60;99.90
20858;DHT22;10589;53.636;10.012;2022-09-12T07:23:34;14.70;99.90
20858;DHT22;10589;53.636;10.012;2022-09-12T07:26:00;14.90;99.90
20858;DHT22;10589;53.636;10.012;2022-09-12T07:28:28;15.00;99.90
20858;DHT22;10589;53.636;10.012;2022-09-12T07:30:55;15.00;99.90
20858;DHT22;10589;53.636;10.012;2022-09-12T07:33:22;15.20;99.90
20858;DHT22;10589;53.636;10.012;2022-09-12T07:35:48;15.30;99.90
20858;DHT22;10589;53.636;10.012;2022-09-12T07:38:15;15.40;99.90
20858;DHT22;10589;53.636;10.012;2022-09-12T07:40:41;15.60;99.90
20858;DHT22;10589;53.636;10.012;2022-09-12T07:43:07;15.70;99.90
20858;DHT22;10589;53.636;10.012;2022-09-12T07:45:33;15.80;99.90
20858;DHT22;10589;53.636;10.012;2022-09-12T07:47:58;15.90;99.90
20858;DHT22;10589;53.636;10.012;2022-09-12T07:50:24;16.00;99.90
20858;DHT22;10589;53.636;10.012;2022-09-12T07:52:51;16.10;99.90
20858;DHT22;10589;53.636;10.012;2022-09-12T07:55:17;16.20;99.90
20858;DHT22;10589;53.636;10.012;2022-09-12T07:57:43;16.30;99.90
20858;DHT22;10589;53.636;10.012;2022-09-12T08:00:09;16.50;99.90
20858;DHT22;10589;53.636;10.012;2022-09-12T08:02:35;16.70;99.90
20858;DHT22;10589;53.636;10.012;2022-09-12T08:05:01;16.80;99.90
20858;DHT22;10589;53.636;10.012;2022-09-12T08:07:26;16.90;99.90
20858;DHT22;10589;53.636;10.012;2022-09-12T08:09:52;17.00;99.90
20858;DHT22;10589;53.636;10.012;2022-09-12T08:12:18;17.10;99.90
20858;DHT22;10589;53.636;10.012;2022-09-12T08:14:44;17.30;99.90
20858;DHT22;10589;53.636;10.012;2022-09-12T08:17:10;17.60;99.90
20858;DHT22;10589;53.636;10.012;2022-09-12T08:19:36;17.70;99.90
20858;DHT22;10589;53.636;10.012;2022-09-12T08:22:02;18.00;99.90
20858;DHT22;10589;53.636;10.012;2022-09-12T08:24:28;18.20;99.90
20858;DHT22;10589;53.636;10.012;2022-09-12T08:26:54;18.30;99.90
20858;DHT22;10589;53.636;10.012;2022-09-12T08:29:19;18.40;99.90
20858;DHT22;10589;53.636;10.012;2022-09-12T08:31:45;18.50;99.90
20858;DHT22;10589;53.636;10.012;2022-09-12T08:34:11;18.80;99.90
20858;DHT22;10589;53.636;10.012;2022-09-12T08:36:37;18.90;99.90
20858;DHT22;10589;53.636;10.012;2022-09-12T08:39:06;19.00;99.90
20858;DHT22;10589;53.636;10.012;2022-09-12T08:41:43;19.10;99.90
20858;DHT22;10589;53.636;10.012;2022-09-12T08:50:11;19.70;99.90
20858;DHT22;10589;53.636;10.012;2022-09-12T08:55:35;19.90;99.90
20858;DHT22;10589;53.636;10.012;2022-09-12T08:58:22;20.00;99.90
20858;DHT22;10589;53.636;10.012;2022-09-12T09:01:18;19.80;99.90
20858;DHT22;10589;53.636;10.012;2022-09-12T09:04:22;19.80;99.90
20858;DHT22;10589;53.636;10.012;2022-09-12T09:07:20;19.80;99.90
20858;DHT22;10589;53.636;10.012;2022-09-12T09:10:15;19.80;99.90
20858;DHT22;10589;53.636;10.012;2022-09-12T09:12:53;20.00;99.90
20858;DHT22;10589;53.636;10.012;2022-09-12T09:15:32;20.00;99.90
20858;DHT22;10589;53.636;10.012;2022-09-12T09:18:03;20.20;99.90
20858;DHT22;10589;53.636;10.012;2022-09-12T09:23:23;20.60;99.90
20858;DHT22;10589;53.636;10.012;2022-09-12T09:26:05;20.60;99.90
20858;DHT22;10589;53.636;10.012;2022-09-12T09:28:45;20.70;99.90
20858;DHT22;10589;53.636;10.012;2022-09-12T09:31:17;20.80;99.90
20858;DHT22;10589;53.636;10.012;2022-09-12T09:33:46;21.00;99.90
20858;DHT22;10589;53.636;10.012;2022-09-12T09:36:21;21.20;99.90
20858;DHT22;10589;53.636;10.012;2022-09-12T09:43:56;21.40;99.90
20858;DHT22;10589;53.636;10.012;2022-09-12T09:46:22;21.40;99.90
20858;DHT22;10589;53.636;10.012;2022-09-12T09:48:49;21.20;99.90
20858;DHT22;10589;53.636;10.012;2022-09-12T09:51:19;21.10;99.90
20858;DHT22;10589;53.636;10.012;2022-09-12T09:53:52;21.10;99.90
20858;DHT22;10589;53.636;10.012;2022-09-12T09:56:32;21.20;99.90
20858;DHT22;10589;53.636;10.012;2022-09-12T09:59:18;21.40;99.90
20858;DHT22;10589;53.636;10.012;2022-09-12T10:01:46;21.70;99.90
20858;DHT22;10589;53.636;10.012;2022-09-12T10:04:24;21.50;99.90
20858;DHT22;10589;53.636;10.012;2022-09-12T10:06:58;21.50;99.90
20858;DHT22;10589;53.636;10.012;2022-09-12T10:09:29;21.40;99.90
20858;DHT22;10589;53.636;10.012;2022-09-12T10:11:57;21.60;99.90
20858;DHT22;10589;53.636;10.012;2022-09-12T10:14:32;21.60;99.90
20858;DHT22;10589;53.636;10.012;2022-09-12T10:17:00;21.60;99.90
20858;DHT22;10589;53.636;10.012;2022-09-12T10:19:37;21.60;99.90
20858;DHT22;10589;53.636;10.012;2022-09-12T10:22:05;21.70;99.90
20858;DHT22;10589;53.636;10.012;2022-09-12T10:24:56;21.70;99.90
20858;DHT22;10589;53.636;10.012;2022-09-12T10:27:31;21.80;99.90
20858;DHT22;10589;53.636;10.012;2022-09-12T10:30:15;21.70;99.90
20858;DHT22;10589;53.636;10.012;2022-09-12T10:32:45;21.70;99.90
20858;DHT22;10589;53.636;10.012;2022-09-12T10:38:13;21.90;99.90
20858;DHT22;10589;53.636;10.012;2022-09-12T10:40:39;22.00;99.90
20858;DHT22;10589;53.636;10.012;2022-09-12T10:43:33;22.20;99.90
20858;DHT22;10589;53.636;10.012;2022-09-12T10:46:27;22.60;99.90
20858;DHT22;10589;53.636;10.012;2022-09-12T10:49:31;22.50;99.90
20858;DHT22;10589;53.636;10.012;2022-09-12T10:52:22;22.70;99.90
20858;DHT22;10589;53.636;10.012;2022-09-12T10:54:51;22.90;99.90
20858;DHT22;10589;53.636;10.012;2022-09-12T10:57:50;23.40;99.90
20858;DHT22;10589;53.636;10.012;2022-09-12T11:00:19;23.20;99.90
20858;DHT22;10589;53.636;10.012;2022-09-12T11:11:01;22.90;99.90
20858;DHT22;10589;53.636;10.012;2022-09-12T11:19:31;23.00;99.90
20858;DHT22;10589;53.636;10.012;2022-09-12T11:25:37;23.30;99.90
20858;DHT22;10589;53.636;10.012;2022-09-12T11:28:24;23.30;99.90
20858;DHT22;10589;53.636;10.012;2022-09-12T11:31:13;23.40;99.90
20858;DHT22;10589;53.636;10.012;2022-09-12T11:33:45;23.50;99.90
20858;DHT22;10589;53.636;10.012;2022-09-12T11:36:33;23.90;99.90
20858;DHT22;10589;53.636;10.012;2022-09-12T11:39:15;23.70;99.90
20858;DHT22;10589;53.636;10.012;2022-09-12T11:41:45;23.50;99.90
20858;DHT22;10589;53.636;10.012;2022-09-12T11:44:27;23.30;99.90
20858;DHT22;10589;53.636;10.012;2022-09-12T11:46:54;23.60;99.90
20858;DHT22;10589;53.636;10.012;2022-09-12T11:49:44;23.70;99.90
20858;DHT22;10589;53.636;10.012;2022-09-12T11:52:25;23.80;99.90
20858;DHT22;10589;53.636;10.012;2022-09-12T11:57:49;23.80;99.90
20858;DHT22;10589;53.636;10.012;2022-09-12T12:00:18;23.60;99.90
20858;DHT22;10589;53.636;10.012;2022-09-12T12:03:04;23.40;99.90
20858;DHT22;10589;53.636;10.012;2022-09-12T12:08:22;23.30;99.90
20858;DHT22;10589;53.636;10.012;2022-09-12T12:10:55;23.30;99.90
20858;DHT22;10589;53.636;10.012;2022-09-12T12:13:24;23.50;99.90
20858;DHT22;10589;53.636;10.012;2022-09-12T12:16:30;23.50;99.90
20858;DHT22;10589;53.636;10.012;2022-09-12T12:19:02;23.90;99.90
20858;DHT22;10589;53.636;10.012;2022-09-12T12:21:46;23.90;99.90
20858;DHT22;10589;53.636;10.012;2022-09-12T12:24:22;24.10;99.90
20858;DHT22;10589;53.636;10.012;2022-09-12T12:34:40;24.20;99.90
20858;DHT22;10589;53.636;10.012;2022-09-12T12:44:59;25.60;99.90
20858;DHT22;10589;53.636;10.012;2022-09-12T12:47:33;25.30;99.90
20858;DHT22;10589;53.636;10.012;2022-09-12T12:52:48;25.20;99.90
20858;DHT22;10589;53.636;10.012;2022-09-12T12:57:57;24.90;99.90
20858;DHT22;10589;53.636;10.012;2022-09-12T13:05:47;24.50;99.90
20858;DHT22;10589;53.636;10.012;2022-09-12T13:10:54;24.20;99.90
20858;DHT22;10589;53.636;10.012;2022-09-12T13:16:04;24.50;99.90
20858;DHT22;10589;53.636;10.012;2022-09-12T13:18:43;24.70;99.90
20858;DHT22;10589;53.636;10.012;2022-09-12T13:23:38;24.60;99.90
20858;DHT22;10589;53.636;10.012;2022-09-12T13:26:23;24.70;99.90
20858;DHT22;10589;53.636;10.012;2022-09-12T13:29:07;24.90;99.90
20858;DHT22;10589;53.636;10.012;2022-09-12T13:31:32;24.80;99.90
20858;DHT22;10589;53.636;10.012;2022-09-12T13:34:00;24.60;99.90
20858;DHT22;10589;53.636;10.012;2022-09-12T13:39:26;24.50;99.90
20858;DHT22;10589;53.636;10.012;2022-09-12T13:44:54;24.30;99.90
20858;DHT22;10589;53.636;10.012;2022-09-12T13:47:29;24.20;99.90
20858;DHT22;10589;53.636;10.012;2022-09-12T13:49:56;24.00;99.90
20858;DHT22;10589;53.636;10.012;2022-09-12T13:52:25;23.90;99.90
20858;DHT22;10589;53.636;10.012;2022-09-12T13:54:54;23.90;99.90
20858;DHT22;10589;53.636;10.012;2022-09-12T13:57:29;23.70;99.90
20858;DHT22;10589;53.636;10.012;2022-09-12T14:00:17;23.60;99.90
20858;DHT22;10589;53.636;10.012;2022-09-12T14:02:47;23.50;99.90
20858;DHT22;10589;53.636;10.012;2022-09-12T14:05:22;23.40;99.90
20858;DHT22;10589;53.636;10.012;2022-09-12T14:07:57;23.50;99.90
20858;DHT22;10589;53.636;10.012;2022-09-12T14:10:36;23.50;99.90
20858;DHT22;10589;53.636;10.012;2022-09-12T14:13:09;23.70;99.90
20858;DHT22;10589;53.636;10.012;2022-09-12T14:15:36;24.10;99.90
20858;DHT22;10589;53.636;10.012;2022-09-12T14:18:05;24.70;99.90
20858;DHT22;10589;53.636;10.012;2022-09-12T14:20:35;25.70;99.90
20858;DHT22;10589;53.636;10.012;2022-09-12T14:23:22;26.70;99.90
20858;DHT22;10589;53.636;10.012;2022-09-12T14:25:49;26.90;99.90
20858;DHT22;10589;53.636;10.012;2022-09-12T14:28:16;26.80;99.90
20858;DHT22;10589;53.636;10.012;2022-09-12T14:31:06;27.10;99.90
20858;DHT22;10589;53.636;10.012;2022-09-12T14:33:47;27.60;99.20
20858;DHT22;10589;53.636;10.012;2022-09-12T14:38:48;27.80;98.50
20858;DHT22;10589;53.636;10.012;2022-09-12T14:41:25;27.50;97.70
20858;DHT22;10589;53.636;10.012;2022-09-12T14:43:58;27.50;97.60
20858;DHT22;10589;53.636;10.012;2022-09-12T14:46:30;27.00;97.60
20858;DHT22;10589;53.636;10.012;2022-09-12T14:49:01;26.70;99.90
20858;DHT22;10589;53.636;10.012;2022-09-12T14:51:33;26.80;99.80
20858;DHT22;10589;53.636;10.012;2022-09-12T14:53:59;26.70;99.20
20858;DHT22;10589;53.636;10.012;2022-09-12T14:56:41;26.80;99.00
20858;DHT22;10589;53.636;10.012;2022-09-12T14:59:39;26.50;98.90
20858;DHT22;10589;53.636;10.012;2022-09-12T15:09:47;25.50;99.90
20858;DHT22;10589;53.636;10.012;2022-09-12T15:12:13;25.10;99.90
20858;DHT22;10589;53.636;10.012;2022-09-12T15:14:39;24.90;99.90
20858;DHT22;10589;53.636;10.012;2022-09-12T15:17:04;24.80;99.90
20858;DHT22;10589;53.636;10.012;2022-09-12T15:19:30;24.70;99.90
20858;DHT22;10589;53.636;10.012;2022-09-12T15:21:55;24.80;99.90
20858;DHT22;10589;53.636;10.012;2022-09-12T15:24:21;24.70;99.90
20858;DHT22;10589;53.636;10.012;2022-09-12T15:26:46;24.80;99.90
20858;DHT22;10589;53.636;10.012;2022-09-12T15:29:12;24.70;99.90
20858;DHT22;10589;53.636;10.012;2022-09-12T15:31:38;24.60;99.90
20858;DHT22;10589;53.636;10.012;2022-09-12T15:34:04;24.70;99.90
20858;DHT22;10589;53.636;10.012;2022-09-12T15:36:30;24.90;99.90
20858;DHT22;10589;53.636;10.012;2022-09-12T15:38:56;24.90;99.90
20858;DHT22;10589;53.636;10.012;2022-09-12T15:41:28;25.00;99.90
20858;DHT22;10589;53.636;10.012;2022-09-12T15:43:55;25.00;99.90
20858;DHT22;10589;53.636;10.012;2022-09-12T15:46:21;25.00;99.90
20858;DHT22;10589;53.636;10.012;2022-09-12T15:48:47;24.70;99.90
20858;DHT22;10589;53.636;10.012;2022-09-12T15:51:16;24.50;99.90
20858;DHT22;10589;53.636;10.012;2022-09-12T15:53:42;24.80;99.90
20858;DHT22;10589;53.636;10.012;2022-09-12T15:56:10;25.10;99.90
20858;DHT22;10589;53.636;10.012;2022-09-12T15:58:35;25.60;99.90
20858;DHT22;10589;53.636;10.012;2022-09-12T16:01:03;26.10;99.90
20858;DHT22;10589;53.636;10.012;2022-09-12T16:03:29;26.20;99.90
20858;DHT22;10589;53.636;10.012;2022-09-12T16:05:56;26.40;99.90
20858;DHT22;10589;53.636;10.012;2022-09-12T16:08:22;26.60;98.90
20858;DHT22;10589;53.636;10.012;2022-09-12T16:10:54;26.60;98.80
20858;DHT22;10589;53.636;10.012;2022-09-12T16:13:22;26.00;99.70
20858;DHT22;10589;53.636;10.012;2022-09-12T16:15:47;25.40;99.90
20858;DHT22;10589;53.636;10.012;2022-09-12T16:18:13;24.90;99.90
20858;DHT22;10589;53.636;10.012;2022-09-12T16:20:39;24.70;99.90
20858;DHT22;10589;53.636;10.012;2022-09-12T16:23:05;24.30;99.90
20858;DHT22;10589;53.636;10.012;2022-09-12T16:25:31;24.00;99.90
20858;DHT22;10589;53.636;10.012;2022-09-12T16:27:56;23.80;99.90
20858;DHT22;10589;53.636;10.012;2022-09-12T16:30:22;23.50;99.90
20858;DHT22;10589;53.636;10.012;2022-09-12T16:32:48;23.30;99.90
20858;DHT22;10589;53.636;10.012;2022-09-12T16:35:14;23.00;99.90
20858;DHT22;10589;53.636;10.012;2022-09-12T16:37:39;22.70;99.90
20858;DHT22;10589;53.636;10.012;2022-09-12T16:40:05;22.60;99.90
20858;DHT22;10589;53.636;10.012;2022-09-12T16:42:31;22.50;99.90
20858;DHT22;10589;53.636;10.012;2022-09-12T16:44:57;22.30;99.90
20858;DHT22;10589;53.636;10.012;2022-09-12T16:47:23;22.10;99.90
20858;DHT22;10589;53.636;10.012;2022-09-12T16:49:48;22.00;99.90
20858;DHT22;10589;53.636;10.012;2022-09-12T16:52:15;21.70;99.90
20858;DHT22;10589;53.636;10.012;2022-09-12T16:54:42;21.60;99.90
20858;DHT22;10589;53.636;10.012;2022-09-12T16:57:09;21.40;99.90
20858;DHT22;10589;53.636;10.012;2022-09-12T16:59:34;21.30;99.90
20858;DHT22;10589;53.636;10.012;2022-09-12T17:02:00;21.20;99.90
20858;DHT22;10589;53.636;10.012;2022-09-12T17:04:26;21.00;99.90
20858;DHT22;10589;53.636;10.012;2022-09-12T17:06:52;20.90;99.90
20858;DHT22;10589;53.636;10.012;2022-09-12T17:09:18;20.80;99.90
20858;DHT22;10589;53.636;10.012;2022-09-12T17:11:45;20.70;99.90
20858;DHT22;10589;53.636;10.012;2022-09-12T17:14:12;20.70;99.90
20858;DHT22;10589;53.636;10.012;2022-09-12T17:16:43;20.70;99.90
20858;DHT22;10589;53.636;10.012;2022-09-12T17:19:15;20.60;99.90
20858;DHT22;10589;53.636;10.012;2022-09-12T17:21:42;20.50;99.90
20858;DHT22;10589;53.636;10.012;2022-09-12T17:24:08;20.40;99.90
20858;DHT22;10589;53.636;10.012;2022-09-12T17:26:34;20.40;99.90
20858;DHT22;10589;53.636;10.012;2022-09-12T17:28:59;20.30;99.90
20858;DHT22;10589;53.636;10.012;2022-09-12T17:31:25;20.20;99.90
20858;DHT22;10589;53.636;10.012;2022-09-12T17:33:55;20.10;99.90
20858;DHT22;10589;53.636;10.012;2022-09-12T17:36:21;20.10;99.90
20858;DHT22;10589;53.636;10.012;2022-09-12T17:38:47;20.00;99.90
20858;DHT22;10589;53.636;10.012;2022-09-12T17:41:19;19.90;99.90
20858;DHT22;10589;53.636;10.012;2022-09-12T17:43:47;19.90;99.90
20858;DHT22;10589;53.636;10.012;2022-09-12T17:46:15;19.80;99.90
20858;DHT22;10589;53.636;10.012;2022-09-12T17:48:41;19.70;99.90
20858;DHT22;10589;53.636;10.012;2022-09-12T17:51:08;19.60;99.90
20858;DHT22;10589;53.636;10.012;2022-09-12T17:53:34;19.50;99.90
20858;DHT22;10589;53.636;10.012;2022-09-12T17:56:02;19.50;99.90
20858;DHT22;10589;53.636;10.012;2022-09-12T17:58:27;19.40;99.90
20858;DHT22;10589;53.636;10.012;2022-09-12T18:01:00;19.40;99.90
20858;DHT22;10589;53.636;10.012;2022-09-12T18:03:44;19.30;99.90
20858;DHT22;10589;53.636;10.012;2022-09-12T18:06:11;19.20;99.90
20858;DHT22;10589;53.636;10.012;2022-09-12T18:08:36;19.20;99.90
20858;DHT22;10589;53.636;10.012;2022-09-12T18:11:03;19.20;99.90
20858;DHT22;10589;53.636;10.012;2022-09-12T18:13:31;19.10;99.90
20858;DHT22;10589;53.636;10.012;2022-09-12T18:16:04;19.10;99.90
20858;DHT22;10589;53.636;10.012;2022-09-12T18:18:30;19.10;99.90
20858;DHT22;10589;53.636;10.012;2022-09-12T18:20:57;19.10;99.90
20858;DHT22;10589;53.636;10.012;2022-09-12T18:23:22;19.00;99.90
20858;DHT22;10589;53.636;10.012;2022-09-12T18:25:48;19.10;99.90
20858;DHT22;10589;53.636;10.012;2022-09-12T18:28:13;19.10;99.90
20858;DHT22;10589;53.636;10.012;2022-09-12T18:30:40;19.10;99.90
20858;DHT22;10589;53.636;10.012;2022-09-12T18:33:06;19.10;99.90
20858;DHT22;10589;53.636;10.012;2022-09-12T18:35:32;19.00;99.90
20858;DHT22;10589;53.636;10.012;2022-09-12T18:37:57;19.00;99.90
20858;DHT22;10589;53.636;10.012;2022-09-12T18:40:23;19.00;99.90
20858;DHT22;10589;53.636;10.012;2022-09-12T18:42:48;19.00;99.90
20858;DHT22;10589;53.636;10.012;2022-09-12T18:45:14;19.00;99.90
20858;DHT22;10589;53.636;10.012;2022-09-12T18:47:39;18.90;99.90
20858;DHT22;10589;53.636;10.012;2022-09-12T18:50:06;19.00;99.90
20858;DHT22;10589;53.636;10.012;2022-09-12T18:52:32;19.00;99.90
20858;DHT22;10589;53.636;10.012;2022-09-12T18:54:57;18.90;99.90
20858;DHT22;10589;53.636;10.012;2022-09-12T18:57:23;18.80;99.90
20858;DHT22;10589;53.636;10.012;2022-09-12T18:59:49;18.90;99.90
20858;DHT22;10589;53.636;10.012;2022-09-12T19:02:16;18.90;99.90
20858;DHT22;10589;53.636;10.012;2022-09-12T19:04:41;18.90;99.90
20858;DHT22;10589;53.636;10.012;2022-09-12T19:07:08;18.80;99.90
20858;DHT22;10589;53.636;10.012;2022-09-12T19:09:34;18.70;99.90
20858;DHT22;10589;53.636;10.012;2022-09-12T19:12:00;18.70;99.90
20858;DHT22;10589;53.636;10.012;2022-09-12T19:14:26;18.60;99.90
20858;DHT22;10589;53.636;10.012;2022-09-12T19:16:52;18.50;99.90
20858;DHT22;10589;53.636;10.012;2022-09-12T19:19:19;18.40;99.90
20858;DHT22;10589;53.636;10.012;2022-09-12T19:21:45;18.40;99.90
20858;DHT22;10589;53.636;10.012;2022-09-12T19:24:11;18.40;99.90
20858;DHT22;10589;53.636;10.012;2022-09-12T19:26:39;18.30;99.90
20858;DHT22;10589;53.636;10.012;2022-09-12T19:29:05;18.30;99.90
20858;DHT22;10589;53.636;10.012;2022-09-12T19:31:31;18.10;99.90
20858;DHT22;10589;53.636;10.012;2022-09-12T19:34:01;18.10;99.90
20858;DHT22;10589;53.636;10.012;2022-09-12T19:36:27;18.00;99.90
20858;DHT22;10589;53.636;10.012;2022-09-12T19:38:52;17.90;99.90
20858;DHT22;10589;53.636;10.012;2022-09-12T19:41:18;17.80;99.90
20858;DHT22;10589;53.636;10.012;2022-09-12T19:43:44;17.70;99.90
20858;DHT22;10589;53.636;10.012;2022-09-12T19:46:17;17.60;99.90
20858;DHT22;10589;53.636;10.012;2022-09-12T19:48:45;17.60;99.90
20858;DHT22;10589;53.636;10.012;2022-09-12T19:51:11;17.60;99.90
20858;DHT22;10589;53.636;10.012;2022-09-12T19:53:37;17.70;99.90
20858;DHT22;10589;53.636;10.012;2022-09-12T19:56:04;17.70;99.90
20858;DHT22;10589;53.636;10.012;2022-09-12T19:58:31;17.60;99.90
20858;DHT22;10589;53.636;10.012;2022-09-12T20:01:07;17.60;99.90
20858;DHT22;10589;53.636;10.012;2022-09-12T20:03:33;17.60;99.90
20858;DHT22;10589;53.636;10.012;2022-09-12T20:06:03;17.60;99.90
20858;DHT22;10589;53.636;10.012;2022-09-12T20:08:30;17.70;99.90
20858;DHT22;10589;53.636;10.012;2022-09-12T20:10:56;17.60;99.90
20858;DHT22;10589;53.636;10.012;2022-09-12T20:13:21;17.50;99.90
20858;DHT22;10589;53.636;10.012;2022-09-12T20:15:47;17.50;99.90
20858;DHT22;10589;53.636;10.012;2022-09-12T20:18:13;17.50;99.90
20858;DHT22;10589;53.636;10.012;2022-09-12T20:20:38;17.50;99.90
20858;DHT22;10589;53.636;10.012;2022-09-12T20:23:04;17.40;99.90
20858;DHT22;10589;53.636;10.012;2022-09-12T20:25:30;17.40;99.90
20858;DHT22;10589;53.636;10.012;2022-09-12T20:27:56;17.40;99.90
20858;DHT22;10589;53.636;10.012;2022-09-12T20:30:22;17.40;99.90
20858;DHT22;10589;53.636;10.012;2022-09-12T20:32:47;17.30;99.90
20858;DHT22;10589;53.636;10.012;2022-09-12T20:35:15;17.30;99.90
20858;DHT22;10589;53.636;10.012;2022-09-12T20:37:41;17.30;99.90
20858;DHT22;10589;53.636;10.012;2022-09-12T20:40:08;17.20;99.90
20858;DHT22;10589;53.636;10.012;2022-09-12T20:42:34;17.30;99.90
20858;DHT22;10589;53.636;10.012;2022-09-12T20:45:00;17.30;99.90
20858;DHT22;10589;53.636;10.012;2022-09-12T20:47:26;17.20;99.90
20858;DHT22;10589;53.636;10.012;2022-09-12T20:49:51;17.20;99.90